Albuquerque Double Eagle, NM

1:57 PM MST on February 01, 2015 (GMT -0700)
Albuquerque International Sunport | Change Station
CLOSE
Current Station
Airport
Location: Albuquerque,
Elevation: 5312 ft
Nearby Weather Stations

Elev 5312 ft 35.04 °N, 106.61 °W | Updated 5 minutes ago

Clear
Clear
49 °F
Feels Like 49 °F
N
10
Wind Variable Wind from NNW

Today
High -- | Low -- °F
--% Chance of Precip.
Yesterday
High -- | Low -- °F
Precip. -- in
7:06 AM 5:35 PM
Waxing Gibbous, 96% visible
Pressure 30.06 in
Visibility 10.0 miles
Clouds Few 4000 ft
Dew Point 29 °F
Humidity 46%
Rainfall 0.00 in
Snow Depth Not available.
UV 4 out of 12
Pollen .50 out of 12
Air Quality Not available.
Flu Activity Not available.
METAR KABQ 012052Z 33009KT 10SM FEW040 09/M02 A3011 RMK AO2 SLP179 MTN TOP OBSC NE T00941017 58014

More Conditions Fewer Conditions

Pressure 30.06 in
Visibility 10.0 miles
Clouds Few 4000 ft
Dew Point 29 °F
Humidity 46%
Rainfall 0.00 in
Snow Depth Not available.
UV 4 out of 12
Pollen .50 out of 12
Air Quality Not available.
Flu Activity Not available.
METAR KABQ 012052Z 33009KT 10SM FEW040 09/M02 A3011 RMK AO2 SLP179 MTN TOP OBSC NE T00941017 58014

More Conditions Fewer Conditions

10-Day Weather Forecast

Almanac

Astronomy

Feb. 01, 2015 Rise Set
Actual Time
Civil Twilight
Nautical Twilight
Astronomical Twilight
Moon
Length of Visible Light
Length of Day
Tomorrow will be .
, % of the Moon is Illuminated

Today's Extremes

State Highs State Lows

Community

WunderPhotos

Upload Photos

1,792,514 photos uploaded!

WunderBlogs® & News

Nearby

Air Quality

  Air Quality AQ Index Pollutant
Not available.

Snow Depth

Station Depth Elevation

Earthquake Activity

City Distance Mag. Time & Date
Minimum magnitude displayed is 2.5.

Coastal Water Temperatures

Place Temperature

Nearby Weather Stations